Time;durP1;ratioP1;P1;durP2;ratioP2;P2;SDS_P1;SDS_P2;PMS_P1;PMS_P2;Temp;Humidity;BMP_temperature;BMP_pressure;BME280_temperature;BME280_humidity;BME280_pressure;Samples;Min_cycle;Max_cycle;Signal;HPM_P1;HPM_P2
2021/10/19 00:01:46;;;;;;;29.60;23.60;;;9.00;99.90;;;;;;5022156;28;20431;-91
2021/10/19 00:04:13;;;;;;;31.47;23.70;;;9.00;99.90;;;;;;5023590;28;20857;-92
2021/10/19 00:06:39;;;;;;;27.37;24.10;;;9.00;99.90;;;;;;5019877;28;20480;-92
2021/10/19 00:09:06;;;;;;;28.63;23.20;;;9.00;99.90;;;;;;5017752;28;20509;-92
2021/10/19 00:11:33;;;;;;;25.60;21.10;;;9.00;99.90;;;;;;5016845;28;20831;-91
2021/10/19 00:14:00;;;;;;;26.53;21.43;;;9.00;99.90;;;;;;5024677;28;20450;-91
2021/10/19 00:16:27;;;;;;;28.67;22.93;;;9.00;99.90;;;;;;5018457;28;20481;-92
2021/10/19 00:18:55;;;;;;;35.07;23.20;;;8.90;99.90;;;;;;5017643;28;20824;-92
2021/10/19 00:21:22;;;;;;;30.40;23.70;;;9.00;99.90;;;;;;5019269;28;20481;-92
2021/10/19 00:23:49;;;;;;;28.60;23.10;;;9.00;99.90;;;;;;5040475;28;20435;-91
2021/10/19 00:26:15;;;;;;;27.03;22.40;;;9.00;99.90;;;;;;5022324;28;20469;-91
2021/10/19 00:28:42;;;;;;;31.37;23.83;;;9.00;99.90;;;;;;5017118;28;20486;-91
2021/10/19 00:31:09;;;;;;;28.20;22.97;;;8.90;99.90;;;;;;5016402;28;20966;-91
2021/10/19 00:33:36;;;;;;;31.60;24.30;;;8.90;99.90;;;;;;5016305;28;20785;-91
2021/10/19 00:36:04;;;;;;;30.93;23.87;;;8.90;99.90;;;;;;5020932;28;20660;-91
2021/10/19 00:38:31;;;;;;;30.00;23.67;;;8.90;99.90;;;;;;5020801;28;20829;-92
2021/10/19 00:40:58;;;;;;;29.43;24.20;;;8.90;99.90;;;;;;5018113;28;20458;-91
2021/10/19 00:43:26;;;;;;;30.53;24.50;;;8.90;99.90;;;;;;5019689;28;20629;-92
2021/10/19 00:46:04;;;;;;;33.07;23.80;;;8.90;99.90;;;;;;5031166;28;20529;-91
2021/10/19 00:48:32;;;;;;;30.40;23.20;;;8.90;99.90;;;;;;5039253;28;20462;-92
2021/10/19 00:51:00;;;;;;;33.17;23.50;;;8.80;99.90;;;;;;5039914;28;20446;-92
2021/10/19 00:53:29;;;;;;;32.80;23.70;;;8.80;99.90;;;;;;5023041;28;20446;-92
2021/10/19 00:55:55;;;;;;;31.33;23.10;;;8.80;99.90;;;;;;5021047;28;20475;-90
2021/10/19 00:58:22;;;;;;;29.77;23.47;;;8.80;99.90;;;;;;5031770;28;20430;-91
2021/10/19 01:00:49;;;;;;;28.37;23.70;;;8.80;99.90;;;;;;5025882;28;20477;-91
2021/10/19 01:03:15;;;;;;;30.03;23.67;;;8.80;99.90;;;;;;5020961;28;20482;-92
2021/10/19 01:05:42;;;;;;;32.37;23.70;;;8.80;99.90;;;;;;5016374;28;20454;-92
2021/10/19 01:08:13;;;;;;;30.60;23.93;;;8.80;99.90;;;;;;5019225;28;20482;-91
2021/10/19 01:10:44;;;;;;;30.73;24.50;;;8.80;99.90;;;;;;5021067;28;20986;-92
2021/10/19 01:13:10;;;;;;;32.80;24.20;;;8.70;99.90;;;;;;5019375;28;20462;-91
2021/10/19 01:15:37;;;;;;;32.93;25.73;;;8.80;99.90;;;;;;5016449;28;20449;-91
2021/10/19 01:18:04;;;;;;;24.90;21.10;;;8.70;99.90;;;;;;5023486;28;20441;-91
2021/10/19 01:20:34;;;;;;;32.17;21.90;;;8.80;99.90;;;;;;5025100;28;20459;-91
2021/10/19 01:23:03;;;;;;;30.43;22.57;;;8.80;99.90;;;;;;5023932;28;20458;-91
2021/10/19 01:25:32;;;;;;;30.37;21.67;;;8.80;99.90;;;;;;5024220;28;20434;-91
2021/10/19 01:28:01;;;;;;;25.17;20.60;;;8.80;99.90;;;;;;5015709;28;20555;-91
2021/10/19 01:30:28;;;;;;;26.70;20.70;;;8.70;99.90;;;;;;5020119;28;20454;-92
2021/10/19 01:32:55;;;;;;;26.83;21.07;;;8.80;99.90;;;;;;5039248;28;20505;-92
2021/10/19 01:35:33;;;;;;;29.57;21.40;;;8.80;99.90;;;;;;5025858;28;20453;-91
2021/10/19 01:37:59;;;;;;;27.33;19.17;;;8.70;99.90;;;;;;5014434;28;20449;-92
2021/10/19 01:40:26;;;;;;;23.20;19.50;;;8.70;99.90;;;;;;5014779;28;20453;-91
2021/10/19 01:42:53;;;;;;;24.93;19.97;;;8.70;99.90;;;;;;5015337;28;20450;-92
2021/10/19 01:45:20;;;;;;;25.43;19.10;;;8.70;99.90;;;;;;5015932;28;20530;-91
2021/10/19 01:47:47;;;;;;;26.20;21.73;;;8.70;99.90;;;;;;5055007;23;20492;-86
2021/10/19 01:50:15;;;;;;;27.70;20.93;;;8.70;99.90;;;;;;5053726;28;20463;-86
2021/10/19 01:52:44;;;;;;;22.50;18.87;;;8.70;99.90;;;;;;5052670;28;20453;-86
2021/10/19 01:55:12;;;;;;;23.47;18.57;;;8.70;99.90;;;;;;5052873;28;20444;-86
2021/10/19 01:57:39;;;;;;;24.77;20.20;;;8.60;99.90;;;;;;5052726;28;20538;-86
2021/10/19 02:00:08;;;;;;;24.60;20.50;;;8.70;99.90;;;;;;5064057;28;20446;-86
2021/10/19 02:02:35;;;;;;;30.10;22.10;;;8.80;99.90;;;;;;5075748;28;20432;-86
2021/10/19 02:05:02;;;;;;;23.57;18.43;;;8.80;99.90;;;;;;5073594;28;20443;-86
2021/10/19 02:07:28;;;;;;;25.90;20.43;;;8.80;99.90;;;;;;5072800;28;20444;-86
2021/10/19 02:09:56;;;;;;;23.00;20.50;;;8.80;99.90;;;;;;5071931;28;20472;-85
2021/10/19 02:12:23;;;;;;;28.83;21.20;;;8.80;99.90;;;;;;5069305;28;20429;-86
2021/10/19 02:14:50;;;;;;;22.40;19.00;;;8.90;99.90;;;;;;5056936;28;20455;-86
2021/10/19 02:17:17;;;;;;;23.00;20.60;;;8.90;99.90;;;;;;5065201;28;20470;-86
2021/10/19 02:19:44;;;;;;;25.77;21.20;;;9.00;99.90;;;;;;5062887;28;20944;-86
2021/10/19 02:22:10;;;;;;;24.97;18.50;;;9.00;99.90;;;;;;5062150;28;20442;-87
2021/10/19 02:24:37;;;;;;;22.83;18.37;;;9.00;99.90;;;;;;5057777;28;20449;-86
2021/10/19 02:27:05;;;;;;;22.53;19.97;;;9.10;99.90;;;;;;5052694;28;20471;-86
2021/10/19 02:29:32;;;;;;;22.03;19.43;;;9.10;99.90;;;;;;5052583;28;20487;-86
2021/10/19 02:31:59;;;;;;;25.40;18.57;;;9.20;99.90;;;;;;5052704;28;20456;-86
2021/10/19 02:34:26;;;;;;;23.90;20.20;;;9.20;99.90;;;;;;5053052;28;20455;-86
2021/10/19 02:36:53;;;;;;;25.60;21.57;;;9.20;99.90;;;;;;5052673;28;20476;-86
2021/10/19 02:39:20;;;;;;;20.90;18.60;;;9.20;99.90;;;;;;5052661;28;20451;-86
2021/10/19 02:41:46;;;;;;;25.90;20.67;;;9.30;99.90;;;;;;5052993;28;20452;-86
2021/10/19 02:44:15;;;;;;;27.00;20.60;;;9.30;99.90;;;;;;5054438;28;20463;-86
2021/10/19 02:46:41;;;;;;;24.63;18.87;;;9.30;99.90;;;;;;5054460;28;20470;-86
2021/10/19 02:49:08;;;;;;;22.50;19.10;;;9.30;99.90;;;;;;5053386;28;20484;-86
2021/10/19 02:51:35;;;;;;;23.80;18.70;;;9.30;99.90;;;;;;5052519;28;20452;-86
2021/10/19 02:54:01;;;;;;;22.97;19.60;;;9.30;99.90;;;;;;5052953;28;20968;-86
2021/10/19 02:56:28;;;;;;;20.07;16.70;;;9.40;99.90;;;;;;5052632;28;20444;-86
2021/10/19 02:58:55;;;;;;;21.40;18.70;;;9.40;99.90;;;;;;5052794;28;20949;-86
2021/10/19 03:01:23;;;;;;;19.60;16.73;;;9.40;99.90;;;;;;5072382;28;20423;-86
2021/10/19 03:03:50;;;;;;;24.13;18.20;;;9.50;99.90;;;;;;5068725;28;20448;-86
2021/10/19 03:06:16;;;;;;;19.90;17.77;;;9.50;99.90;;;;;;5059891;28;20444;-87
2021/10/19 03:08:43;;;;;;;18.90;16.80;;;9.50;99.90;;;;;;5065603;28;20514;-89
2021/10/19 03:11:10;;;;;;;18.47;16.57;;;9.50;99.90;;;;;;5058477;28;20440;-89
2021/10/19 03:13:37;;;;;;;22.33;18.20;;;9.60;99.90;;;;;;5055481;28;20444;-89
2021/10/19 03:16:04;;;;;;;19.37;17.27;;;9.60;99.90;;;;;;5053502;28;20472;-89
2021/10/19 03:18:34;;;;;;;18.77;16.37;;;9.60;99.90;;;;;;5051121;28;20965;-89
2021/10/19 03:21:00;;;;;;;20.67;18.00;;;9.60;99.90;;;;;;5034875;28;20461;-90
2021/10/19 03:23:27;;;;;;;19.57;17.30;;;9.50;99.90;;;;;;5037371;28;20451;-88
2021/10/19 03:25:54;;;;;;;18.33;16.43;;;9.50;99.90;;;;;;5037110;28;20437;-89
2021/10/19 03:28:21;;;;;;;22.30;17.40;;;9.60;99.90;;;;;;5050141;28;20468;-89
2021/10/19 03:30:48;;;;;;;18.33;16.10;;;9.60;99.90;;;;;;5057228;28;20479;-89
2021/10/19 03:33:15;;;;;;;18.53;16.03;;;9.70;99.90;;;;;;5087473;28;20427;-88
2021/10/19 03:35:43;;;;;;;20.27;16.27;;;9.70;99.90;;;;;;5099904;28;20432;-88
2021/10/19 03:38:10;;;;;;;18.73;15.70;;;9.80;99.90;;;;;;5082433;28;20952;-87
2021/10/19 03:40:36;;;;;;;17.60;15.77;;;9.80;99.90;;;;;;5076216;28;20451;-89
2021/10/19 03:43:05;;;;;;;20.07;17.20;;;9.80;99.90;;;;;;5076671;28;20433;-89
2021/10/19 03:45:32;;;;;;;17.03;15.00;;;9.80;99.90;;;;;;5076114;28;20467;-88
2021/10/19 03:47:59;;;;;;;23.87;18.10;;;9.80;99.90;;;;;;5075527;28;20488;-89
2021/10/19 03:50:27;;;;;;;19.13;17.23;;;9.90;99.90;;;;;;5075871;28;20479;-89
2021/10/19 03:52:57;;;;;;;21.20;17.27;;;10.00;99.90;;;;;;5076036;28;20451;-90
2021/10/19 03:55:24;;;;;;;33.37;21.20;;;10.00;99.90;;;;;;5076539;28;20452;-89
2021/10/19 03:57:51;;;;;;;20.70;17.70;;;10.00;99.90;;;;;;5075191;28;20480;-89
2021/10/19 04:00:18;;;;;;;18.63;15.87;;;10.00;99.90;;;;;;5074220;28;20440;-89
2021/10/19 04:02:45;;;;;;;20.27;18.10;;;10.00;99.90;;;;;;5056110;28;20905;-89
2021/10/19 04:05:12;;;;;;;22.10;17.23;;;10.00;99.90;;;;;;5056154;28;20461;-89
2021/10/19 04:07:39;;;;;;;23.07;17.97;;;10.00;99.90;;;;;;5055668;28;20452;-89
2021/10/19 04:10:08;;;;;;;21.33;17.20;;;10.00;99.90;;;;;;5055411;28;20875;-89
2021/10/19 04:12:35;;;;;;;20.53;15.93;;;10.10;99.90;;;;;;5055704;28;20455;-90
2021/10/19 04:15:02;;;;;;;20.10;17.20;;;10.10;99.90;;;;;;5055547;28;20444;-89
2021/10/19 04:17:29;;;;;;;20.20;16.60;;;10.10;99.90;;;;;;5056032;28;20559;-88
2021/10/19 04:19:55;;;;;;;28.53;17.87;;;10.10;99.90;;;;;;5058472;28;20448;-89
2021/10/19 04:22:23;;;;;;;22.77;18.90;;;10.10;99.90;;;;;;5057587;28;20437;-89
2021/10/19 04:24:51;;;;;;;22.87;18.13;;;10.20;99.90;;;;;;5070045;28;20417;-89
2021/10/19 04:27:20;;;;;;;21.80;17.80;;;10.20;99.90;;;;;;5057069;28;20886;-89
2021/10/19 04:29:47;;;;;;;21.83;17.60;;;10.20;99.90;;;;;;5061062;28;20500;-89
2021/10/19 04:32:14;;;;;;;18.73;16.73;;;10.20;99.90;;;;;;5055757;28;20444;-89
2021/10/19 04:34:41;;;;;;;25.17;18.13;;;10.20;99.90;;;;;;5055603;28;20647;-88
2021/10/19 04:37:07;;;;;;;20.90;17.43;;;10.20;99.90;;;;;;5054899;28;20843;-77
2021/10/19 04:39:35;;;;;;;25.33;17.50;;;10.20;99.90;;;;;;5055877;28;20448;-79
2021/10/19 04:42:02;;;;;;;25.43;17.93;;;10.20;99.90;;;;;;5054230;28;20486;-77
2021/10/19 04:44:31;;;;;;;25.77;17.37;;;10.20;99.90;;;;;;5054695;28;20498;-77
2021/10/19 04:46:57;;;;;;;21.23;17.17;;;10.20;99.90;;;;;;5054822;28;20495;-77
2021/10/19 04:49:35;;;;;;;22.07;17.10;;;10.20;99.90;;;;;;5055162;28;20488;-89
2021/10/19 04:52:10;;;;;;;25.97;18.40;;;10.20;99.90;;;;;;5056771;28;20980;-90
2021/10/19 04:54:38;;;;;;;19.73;17.20;;;10.20;99.90;;;;;;5055304;28;20948;-90
2021/10/19 04:57:05;;;;;;;23.70;16.40;;;10.20;99.90;;;;;;5055156;28;20472;-90
2021/10/19 04:59:37;;;;;;;19.87;16.20;;;10.20;99.90;;;;;;5055843;28;20460;-89
2021/10/19 05:02:04;;;;;;;25.73;16.70;;;10.20;99.90;;;;;;5055876;28;20885;-89
2021/10/19 05:04:34;;;;;;;17.70;15.53;;;10.20;99.90;;;;;;5073717;28;20475;-88
2021/10/19 05:07:01;;;;;;;18.97;14.67;;;10.20;99.90;;;;;;5077419;28;20471;-89
2021/10/19 05:09:30;;;;;;;19.57;16.07;;;10.30;99.90;;;;;;5070626;28;20485;-89
2021/10/19 05:11:58;;;;;;;18.97;16.40;;;10.30;99.90;;;;;;5066464;28;20448;-89
2021/10/19 05:14:27;;;;;;;21.33;16.30;;;10.30;99.90;;;;;;5066389;28;20528;-90
2021/10/19 05:16:55;;;;;;;17.50;15.13;;;10.40;99.90;;;;;;5073251;28;20592;-90
2021/10/19 05:19:26;;;;;;;18.80;16.03;;;10.30;99.90;;;;;;5058720;28;20456;-90
2021/10/19 05:21:53;;;;;;;19.53;17.00;;;10.20;99.90;;;;;;5061603;28;20455;-90
2021/10/19 05:24:19;;;;;;;21.10;16.13;;;10.20;99.90;;;;;;5070473;28;20468;-89
2021/10/19 05:26:48;;;;;;;22.90;17.50;;;10.20;99.90;;;;;;5076961;28;20457;-89
2021/10/19 05:29:15;;;;;;;21.97;16.63;;;10.20;99.90;;;;;;5070788;28;20482;-91
2021/10/19 05:31:42;;;;;;;19.67;16.77;;;10.20;99.90;;;;;;5064833;28;20477;-89
2021/10/19 05:34:10;;;;;;;18.33;14.13;;;10.20;99.90;;;;;;5074685;28;20443;-90
2021/10/19 05:36:37;;;;;;;20.30;16.60;;;10.20;99.90;;;;;;5061665;28;20472;-89
2021/10/19 05:39:05;;;;;;;20.73;16.87;;;10.20;99.90;;;;;;5048429;28;21123;-90
2021/10/19 05:41:35;;;;;;;21.77;17.37;;;10.30;99.90;;;;;;5047829;28;20456;-90
2021/10/19 05:44:01;;;;;;;23.37;17.53;;;10.30;99.90;;;;;;5043335;28;20781;-90
2021/10/19 05:46:29;;;;;;;22.97;17.33;;;10.30;99.90;;;;;;5063715;28;21149;-91
2021/10/19 05:48:58;;;;;;;21.50;16.87;;;10.30;99.90;;;;;;5052498;28;20434;-89
2021/10/19 05:51:29;;;;;;;18.10;15.10;;;10.30;99.90;;;;;;5050236;28;20452;-90
2021/10/19 05:53:59;;;;;;;24.47;17.67;;;10.30;99.90;;;;;;5042599;28;20546;-90
2021/10/19 05:56:26;;;;;;;18.20;15.13;;;10.40;99.90;;;;;;5048795;28;20442;-89
2021/10/19 05:58:55;;;;;;;21.13;16.93;;;10.40;99.90;;;;;;5045467;28;20468;-90
2021/10/19 06:01:22;;;;;;;23.73;17.27;;;10.40;99.90;;;;;;5039256;28;20431;-90
2021/10/19 06:03:52;;;;;;;22.93;17.60;;;10.40;99.90;;;;;;5047381;28;20477;-90
2021/10/19 06:06:20;;;;;;;22.57;16.63;;;10.40;99.90;;;;;;5042233;28;20465;-90
2021/10/19 06:08:51;;;;;;;21.20;16.80;;;10.40;99.90;;;;;;5047364;28;20450;-89
2021/10/19 06:11:18;;;;;;;21.90;16.60;;;10.50;99.90;;;;;;5040079;28;20481;-90
2021/10/19 06:13:46;;;;;;;26.03;16.87;;;10.50;99.90;;;;;;5044443;28;20524;-90
2021/10/19 06:16:16;;;;;;;26.37;17.97;;;10.50;99.90;;;;;;5066494;28;20499;-90
2021/10/19 06:18:48;;;;;;;18.60;15.93;;;10.50;99.90;;;;;;5062037;28;20528;-88
2021/10/19 06:21:18;;;;;;;20.03;16.90;;;10.60;99.90;;;;;;5037121;28;20440;-89
2021/10/19 06:23:48;;;;;;;24.23;20.00;;;10.60;99.90;;;;;;5036247;28;20453;-89
2021/10/19 06:26:17;;;;;;;22.10;17.23;;;10.60;99.90;;;;;;5041896;28;20515;-89
2021/10/19 06:28:44;;;;;;;21.40;16.63;;;10.70;99.90;;;;;;5040566;28;20457;-89
2021/10/19 06:31:11;;;;;;;19.37;16.30;;;10.80;99.90;;;;;;5050943;28;20548;-89
2021/10/19 06:33:39;;;;;;;20.87;15.20;;;10.80;99.90;;;;;;5046868;28;20513;-90
2021/10/19 06:36:09;;;;;;;21.87;16.00;;;10.80;99.90;;;;;;5051208;28;20441;-89
2021/10/19 06:39:07;;;;;;;16.30;13.60;;;10.90;99.90;;;;;;5052968;28;20473;-90
2021/10/19 06:41:38;;;;;;;24.13;15.70;;;10.90;99.90;;;;;;5042752;28;20520;-89
2021/10/19 06:44:05;;;;;;;21.90;15.87;;;11.00;99.90;;;;;;5055037;28;20441;-90
2021/10/19 06:46:32;;;;;;;18.27;14.90;;;11.00;99.90;;;;;;5058901;28;20470;-89
2021/10/19 06:48:59;;;;;;;21.50;16.43;;;11.10;99.90;;;;;;5057867;28;20454;-89
2021/10/19 06:51:26;;;;;;;22.77;15.63;;;11.10;99.90;;;;;;5058201;28;20859;-89
2021/10/19 06:53:53;;;;;;;22.73;15.43;;;11.20;99.90;;;;;;5057469;28;20991;-89
2021/10/19 06:56:20;;;;;;;15.87;14.17;;;11.20;99.90;;;;;;5062856;28;20440;-91
2021/10/19 06:58:50;;;;;;;17.60;14.27;;;11.20;99.90;;;;;;5068429;28;20432;-90
2021/10/19 07:01:19;;;;;;;18.60;16.60;;;11.20;99.90;;;;;;5071789;28;20433;-90
2021/10/19 07:03:45;;;;;;;18.87;15.40;;;11.30;99.90;;;;;;5061979;28;20434;-90
2021/10/19 07:06:13;;;;;;;17.63;15.10;;;11.30;99.90;;;;;;5061521;28;20482;-88
2021/10/19 07:08:39;;;;;;;21.77;16.73;;;11.30;99.90;;;;;;5061259;28;20464;-88
2021/10/19 07:11:07;;;;;;;17.03;15.30;;;11.30;99.90;;;;;;5134967;23;20575;-90
2021/10/19 07:13:35;;;;;;;18.73;16.00;;;11.30;99.90;;;;;;5055400;28;20429;-89
2021/10/19 07:16:03;;;;;;;20.00;16.00;;;11.40;99.90;;;;;;5060910;28;20472;-88
2021/10/19 07:18:30;;;;;;;24.67;15.87;;;11.40;99.90;;;;;;5060765;28;20533;-88
2021/10/19 07:20:57;;;;;;;17.37;15.57;;;11.40;99.90;;;;;;5059830;28;20473;-88
2021/10/19 07:23:32;;;;;;;17.20;15.40;;;11.40;99.90;;;;;;5049251;28;20455;-88
2021/10/19 07:25:59;;;;;;;19.03;15.20;;;11.40;99.90;;;;;;5041864;28;20417;-89
2021/10/19 07:28:26;;;;;;;18.43;15.30;;;11.50;99.90;;;;;;5039534;28;20476;-90
2021/10/19 07:30:53;;;;;;;19.30;16.43;;;11.50;99.90;;;;;;5023694;28;20498;-90
2021/10/19 07:33:23;;;;;;;20.13;15.90;;;11.50;99.90;;;;;;5025654;28;20462;-90
2021/10/19 07:35:50;;;;;;;18.30;15.87;;;11.40;99.90;;;;;;5040032;28;20436;-89
2021/10/19 07:38:16;;;;;;;19.67;16.20;;;11.50;99.90;;;;;;5040331;28;20453;-89
2021/10/19 07:40:43;;;;;;;17.80;15.27;;;11.50;99.90;;;;;;5041488;28;20483;-89
2021/10/19 07:43:12;;;;;;;28.20;16.47;;;11.60;99.90;;;;;;5041748;28;20449;-90
2021/10/19 07:45:39;;;;;;;19.67;16.23;;;11.70;99.90;;;;;;5044684;28;20453;-89
2021/10/19 07:48:06;;;;;;;20.20;16.30;;;11.70;99.90;;;;;;5042729;28;20469;-90
2021/10/19 07:50:35;;;;;;;22.80;16.50;;;11.70;99.90;;;;;;5039681;28;20477;-90
2021/10/19 07:53:02;;;;;;;18.90;15.17;;;11.80;99.90;;;;;;5039106;28;20444;-90
2021/10/19 07:55:33;;;;;;;21.37;15.53;;;11.90;99.90;;;;;;5040748;28;20535;-90
2021/10/19 07:57:59;;;;;;;21.40;14.27;;;12.00;99.90;;;;;;5044357;28;20469;-90
2021/10/19 08:00:28;;;;;;;20.23;14.50;;;12.10;99.90;;;;;;5051648;28;20453;-88
2021/10/19 08:02:57;;;;;;;19.93;14.77;;;12.20;99.90;;;;;;5048444;28;20810;-90
2021/10/19 08:05:27;;;;;;;18.50;14.20;;;12.40;99.90;;;;;;5043317;28;20449;-91
2021/10/19 08:08:07;;;;;;;19.50;13.97;;;12.50;99.90;;;;;;5041611;28;20469;-90
2021/10/19 08:10:34;;;;;;;21.13;14.17;;;12.70;99.90;;;;;;5052012;28;20472;-90
2021/10/19 08:13:01;;;;;;;25.17;15.33;;;12.80;99.90;;;;;;5041625;28;20445;-90
2021/10/19 08:15:30;;;;;;;16.83;14.43;;;12.80;99.90;;;;;;5040026;28;20975;-91
2021/10/19 08:17:57;;;;;;;16.40;13.40;;;12.70;99.90;;;;;;5038545;28;20478;-90
2021/10/19 08:20:24;;;;;;;16.83;14.67;;;12.80;99.90;;;;;;5052497;28;20610;-89
2021/10/19 08:22:51;;;;;;;21.83;15.30;;;12.90;99.90;;;;;;5038950;28;20448;-90
2021/10/19 08:25:22;;;;;;;20.13;15.47;;;12.90;99.90;;;;;;5038185;28;20468;-90
2021/10/19 08:27:51;;;;;;;16.83;15.03;;;12.80;99.90;;;;;;5046650;28;20536;-89
2021/10/19 08:30:19;;;;;;;15.67;14.07;;;12.80;99.90;;;;;;5046538;28;20566;-90
2021/10/19 08:32:47;;;;;;;16.13;14.50;;;12.90;99.90;;;;;;5039264;28;21033;-90
2021/10/19 08:35:19;;;;;;;18.00;13.50;;;12.90;99.90;;;;;;5039205;28;20451;-90
2021/10/19 08:37:47;;;;;;;18.83;15.00;;;13.00;99.90;;;;;;5038562;28;20561;-90
2021/10/19 08:40:17;;;;;;;17.70;13.87;;;13.10;99.90;;;;;;5038693;28;20455;-90
2021/10/19 08:42:47;;;;;;;18.00;14.20;;;13.10;99.90;;;;;;5040596;28;20472;-90
2021/10/19 08:45:18;;;;;;;17.27;14.50;;;13.10;99.90;;;;;;5038634;28;20451;-89
2021/10/19 08:47:47;;;;;;;16.97;15.20;;;13.10;99.90;;;;;;5034464;28;20467;-90
2021/10/19 08:50:15;;;;;;;19.73;14.83;;;13.10;99.90;;;;;;5023655;28;20546;-88
2021/10/19 08:52:42;;;;;;;21.27;17.50;;;13.10;99.90;;;;;;5041015;28;20983;-89
2021/10/19 08:55:09;;;;;;;19.83;16.87;;;12.90;99.90;;;;;;5053032;28;20467;-88
2021/10/19 08:57:39;;;;;;;21.50;16.53;;;12.80;99.90;;;;;;5052762;28;20487;-89
2021/10/19 09:00:20;;;;;;;24.33;17.10;;;12.60;99.90;;;;;;5052703;28;20814;-89
2021/10/19 09:02:49;;;;;;;24.90;17.70;;;12.60;99.90;;;;;;5040182;28;20449;-89
2021/10/19 09:05:22;;;;;;;23.90;16.63;;;12.50;99.90;;;;;;5037890;28;20484;-89
2021/10/19 09:07:58;;;;;;;29.23;20.00;;;12.60;99.90;;;;;;5041603;28;20495;-89
2021/10/19 09:10:25;;;;;;;22.07;17.80;;;12.50;99.90;;;;;;5044419;28;20487;-89
2021/10/19 09:12:57;;;;;;;24.10;18.10;;;12.60;99.90;;;;;;5049573;28;20469;-88
2021/10/19 09:15:31;;;;;;;19.80;17.50;;;12.60;99.90;;;;;;5047237;28;20447;-88
2021/10/19 09:18:01;;;;;;;18.90;17.00;;;12.60;99.90;;;;;;5048820;28;20480;-87
2021/10/19 09:20:29;;;;;;;18.70;15.47;;;12.60;99.90;;;;;;5039907;28;20441;-87
2021/10/19 09:22:58;;;;;;;18.50;16.27;;;12.50;99.90;;;;;;5036821;28;20446;-88
2021/10/19 09:25:29;;;;;;;20.30;16.30;;;12.40;99.90;;;;;;5036706;28;20449;-88
2021/10/19 09:27:59;;;;;;;17.67;15.87;;;12.30;99.90;;;;;;5020717;28;20547;-87
2021/10/19 09:30:36;;;;;;;24.07;17.13;;;12.20;99.90;;;;;;5017486;28;20500;-88
2021/10/19 09:33:06;;;;;;;18.60;14.77;;;12.30;99.90;;;;;;5018987;28;20456;-89
2021/10/19 09:35:33;;;;;;;19.40;17.43;;;12.30;99.90;;;;;;5017272;28;20459;-88
2021/10/19 09:40:43;;;;;;;21.97;15.90;;;12.40;99.90;;;;;;5030396;28;20498;-87
2021/10/19 09:43:11;;;;;;;17.20;13.63;;;12.60;99.90;;;;;;5047422;28;20809;-87
2021/10/19 09:46:08;;;;;;;16.87;14.53;;;12.80;99.90;;;;;;5043202;28;20469;-88
2021/10/19 09:52:27;;;;;;;14.60;12.40;;;13.10;99.90;;;;;;5045271;28;20983;-87
2021/10/19 09:54:56;;;;;;;11.47;10.00;;;13.20;99.90;;;;;;5051692;28;20443;-87
2021/10/19 09:57:23;;;;;;;12.57;9.30;;;13.20;99.90;;;;;;5042695;28;20467;-87
2021/10/19 09:59:53;;;;;;;10.30;9.23;;;13.30;99.90;;;;;;5040765;28;20976;-87
2021/10/19 10:02:19;;;;;;;9.17;7.60;;;13.40;99.90;;;;;;5039841;28;20459;-87
2021/10/19 10:04:46;;;;;;;10.77;8.17;;;13.50;99.90;;;;;;5041167;28;20450;-87
2021/10/19 10:07:15;;;;;;;9.27;8.40;;;13.60;99.90;;;;;;5035973;28;20469;-87
2021/10/19 10:09:42;;;;;;;12.33;10.00;;;13.70;99.90;;;;;;5035799;28;20967;-87
2021/10/19 10:12:10;;;;;;;12.30;10.37;;;13.80;99.90;;;;;;5034047;28;20575;-87
2021/10/19 10:14:44;;;;;;;11.70;9.50;;;13.90;99.90;;;;;;5036510;28;20449;-87
2021/10/19 10:17:11;;;;;;;11.40;9.83;;;14.00;99.90;;;;;;5034676;28;20462;-87
2021/10/19 10:19:38;;;;;;;10.67;8.47;;;14.10;99.90;;;;;;5035642;28;20447;-87
2021/10/19 10:22:16;;;;;;;15.10;8.47;;;14.20;99.90;;;;;;5035839;28;20443;-88
2021/10/19 10:24:44;;;;;;;10.97;8.50;;;14.30;99.90;;;;;;5035044;28;20452;-87
2021/10/19 10:27:15;;;;;;;10.33;8.77;;;14.30;99.90;;;;;;5034877;28;20480;-87
2021/10/19 10:29:43;;;;;;;10.93;7.73;;;14.40;99.90;;;;;;5034421;28;20452;-88
2021/10/19 10:32:26;;;;;;;9.67;7.90;;;14.50;99.90;;;;;;5037829;28;20485;-88
2021/10/19 10:35:01;;;;;;;8.90;7.00;;;14.60;99.90;;;;;;5035691;28;20425;-89
2021/10/19 10:37:36;;;;;;;8.93;7.57;;;14.60;99.90;;;;;;5034774;28;20500;-88
2021/10/19 10:40:05;;;;;;;8.33;7.03;;;14.70;99.90;;;;;;5034063;28;20425;-90
2021/10/19 10:42:37;;;;;;;8.87;7.17;;;14.70;99.90;;;;;;5036409;28;20878;-88
2021/10/19 10:45:15;;;;;;;10.80;8.50;;;14.80;99.90;;;;;;5034024;28;20469;-88
2021/10/19 10:47:45;;;;;;;8.20;7.37;;;14.90;99.90;;;;;;5033989;28;20469;-87
2021/10/19 10:50:12;;;;;;;8.30;7.27;;;14.90;99.90;;;;;;5033842;28;20480;-88
2021/10/19 10:52:39;;;;;;;7.27;6.57;;;15.00;99.90;;;;;;5033863;28;20485;-88
2021/10/19 10:55:12;;;;;;;7.87;6.67;;;14.90;99.90;;;;;;5034069;28;20450;-88
2021/10/19 10:57:44;;;;;;;6.53;5.83;;;15.00;99.90;;;;;;5035271;28;20480;-87
2021/10/19 11:00:14;;;;;;;6.97;6.30;;;15.00;99.90;;;;;;5039744;28;20449;-88
2021/10/19 11:02:41;;;;;;;6.00;5.50;;;15.00;99.90;;;;;;5041176;28;20434;-88
2021/10/19 11:05:13;;;;;;;5.87;5.37;;;15.10;99.90;;;;;;5043804;28;20447;-88
2021/10/19 11:07:42;;;;;;;8.13;7.30;;;15.10;99.90;;;;;;5035485;28;20508;-88
2021/10/19 11:10:11;;;;;;;7.17;5.87;;;15.00;99.90;;;;;;5042858;28;20447;-88
2021/10/19 11:12:39;;;;;;;6.97;6.00;;;14.90;99.90;;;;;;5046149;28;20495;-87
2021/10/19 11:15:16;;;;;;;11.60;5.83;;;14.80;99.90;;;;;;5040888;28;20536;-88
2021/10/19 11:17:45;;;;;;;6.90;6.10;;;14.80;99.90;;;;;;5038412;28;20469;-87
2021/10/19 11:20:12;;;;;;;8.57;7.77;;;14.70;99.90;;;;;;5050058;28;20515;-88
2021/10/19 11:22:40;;;;;;;10.43;7.37;;;14.60;99.90;;;;;;5043708;28;20445;-87
2021/10/19 11:25:08;;;;;;;7.90;6.53;;;14.70;99.90;;;;;;5039309;28;20438;-88
2021/10/19 11:27:34;;;;;;;8.63;7.83;;;14.80;99.90;;;;;;5035273;28;20510;-88
2021/10/19 11:30:01;;;;;;;9.70;7.40;;;14.80;99.90;;;;;;5040963;28;20511;-88
2021/10/19 11:32:33;;;;;;;9.67;7.13;;;14.80;99.90;;;;;;5029461;28;21041;-88
2021/10/19 11:35:00;;;;;;;7.77;6.87;;;14.80;99.90;;;;;;5015178;28;20504;-88
2021/10/19 11:37:27;;;;;;;7.50;6.70;;;14.80;99.90;;;;;;5015079;28;20473;-88
2021/10/19 11:40:02;;;;;;;7.57;6.87;;;14.80;99.90;;;;;;5019681;28;20446;-87
2021/10/19 11:42:29;;;;;;;10.07;7.90;;;14.90;99.90;;;;;;5036448;28;20444;-87
2021/10/19 11:44:56;;;;;;;8.97;8.03;;;15.00;99.90;;;;;;5037897;28;20462;-89
2021/10/19 11:47:22;;;;;;;11.67;8.80;;;15.00;99.90;;;;;;5041916;28;20469;-80
2021/10/19 11:49:51;;;;;;;8.00;7.30;;;15.00;99.90;;;;;;5044231;28;20456;-80
2021/10/19 11:52:18;;;;;;;9.93;8.33;;;15.20;99.90;;;;;;5039072;28;20503;-88
2021/10/19 11:54:50;;;;;;;9.77;8.03;;;15.30;99.90;;;;;;5038796;28;20444;-89
2021/10/19 11:57:23;;;;;;;7.97;7.17;;;15.40;99.90;;;;;;5037997;28;20551;-90
2021/10/19 11:59:53;;;;;;;8.53;6.17;;;15.70;99.90;;;;;;5037775;28;20537;-89
2021/10/19 12:02:23;;;;;;;9.00;8.03;;;15.80;99.90;;;;;;5043967;28;20445;-89
2021/10/19 12:05:00;;;;;;;14.37;8.37;;;15.90;99.90;;;;;;5041965;28;20453;-89
2021/10/19 12:07:32;;;;;;;11.70;10.50;;;15.90;99.90;;;;;;5039438;28;20812;-90
2021/10/19 12:10:12;;;;;;;11.80;10.03;;;16.00;99.90;;;;;;5043522;28;20453;-89
2021/10/19 12:12:51;;;;;;;12.60;9.43;;;15.90;99.90;;;;;;5054032;28;20493;-89
2021/10/19 12:15:23;;;;;;;12.07;8.90;;;15.80;99.90;;;;;;5059007;28;20458;-88
2021/10/19 12:17:55;;;;;;;9.03;7.27;;;15.80;99.90;;;;;;5047277;28;20469;-89
2021/10/19 12:20:29;;;;;;;9.40;8.40;;;15.90;99.90;;;;;;5052416;28;20429;-88
2021/10/19 12:23:10;;;;;;;15.40;10.00;;;15.90;99.90;;;;;;5054406;28;21000;-89
2021/10/19 12:25:39;;;;;;;18.50;9.30;;;15.90;99.90;;;;;;5038992;28;20450;-89
2021/10/19 12:28:10;;;;;;;9.87;8.40;;;15.90;99.90;;;;;;5038904;28;20477;-89
2021/10/19 12:30:42;;;;;;;15.43;11.57;;;15.80;99.90;;;;;;5038374;28;20451;-89
2021/10/19 12:33:21;;;;;;;17.53;10.60;;;15.70;99.90;;;;;;5038420;28;20477;-87
2021/10/19 12:35:57;;;;;;;11.90;9.20;;;15.60;99.90;;;;;;5040174;28;20448;-88
2021/10/19 12:38:30;;;;;;;13.03;7.73;;;15.50;99.90;;;;;;5039065;28;20475;-89
2021/10/19 12:41:06;;;;;;;12.50;8.63;;;15.50;99.90;;;;;;5050652;28;20434;-88
2021/10/19 12:43:33;;;;;;;12.37;11.13;;;15.50;99.90;;;;;;5037088;28;20459;-88
2021/10/19 12:46:01;;;;;;;12.70;9.30;;;15.50;99.90;;;;;;5037329;28;20431;-88
2021/10/19 12:48:33;;;;;;;11.00;9.20;;;15.50;99.90;;;;;;5036733;28;20469;-89